< < Back
Terminal Aerodrome Forecast


Current Version              Previous Versions:   1  2  3  4  5  6  7  8  9  

Terminal Aerodrome Forecast

550
FTUS44 KMOB 040539
TAFMOB
TAF
KMOB 040539Z 0406/0506 20007KT P6SM FEW120 BKN250
     FM041400 24007KT P6SM VCSH SCT040 BKN200
      TEMPO 0419/0423 4SM TSRA BKN030CB
     FM042300 19006KT P6SM VCTS SCT035CB BKN200=

Latest METAR

181
SAUS80 KWBC 040600
MTRMOB
METAR KMOB 040556Z AUTO 22005KT 10SM CLR 26/24 A3005 RMK AO2 SLP172
T02610244 10289 20256 403330250 50005


USA.gov is the U.S. government's official web portal to all federal, state and local government web resources and services.